Time;durP1;ratioP1;P1;durP2;ratioP2;P2;SDS_P1;SDS_P2;PMS_P1;PMS_P2;Temp;Humidity;BMP_temperature;BMP_pressure;BME280_temperature;BME280_humidity;BME280_pressure;Samples;Min_cycle;Max_cycle;Signal;HPM_P1;HPM_P2
2023/01/16 00:01:48;;;;;;;48.93;19.93;;;;;;;3.62;89.29;94809.53;5055124;28;20850;-90
2023/01/16 00:04:16;;;;;;;39.17;18.97;;;;;;;3.68;88.55;94809.16;5055116;28;20454;-90
2023/01/16 00:06:43;;;;;;;46.03;19.17;;;;;;;3.64;88.20;94804.25;5054931;28;20465;-92
2023/01/16 00:09:10;;;;;;;32.53;17.63;;;;;;;3.56;87.97;94801.28;5054739;28;20512;-92
2023/01/16 00:11:37;;;;;;;30.77;16.80;;;;;;;3.52;88.16;94807.56;5054581;28;20854;-92
2023/01/16 00:14:05;;;;;;;26.37;15.57;;;;;;;3.50;87.41;94802.47;5054521;28;20995;-91
2023/01/16 00:16:32;;;;;;;26.00;16.57;;;;;;;3.50;87.58;94804.25;5054959;28;20477;-91
2023/01/16 00:18:59;;;;;;;27.30;16.07;;;;;;;3.46;87.51;94802.72;5054605;28;20803;-92
2023/01/16 00:21:27;;;;;;;29.33;17.83;;;;;;;3.41;87.99;94808.19;5054600;28;20457;-91
2023/01/16 00:23:55;;;;;;;21.60;14.50;;;;;;;3.36;88.37;94805.03;5054594;28;20452;-91
2023/01/16 00:26:22;;;;;;;24.47;15.60;;;;;;;3.32;88.71;94803.53;5054560;28;20445;-91
2023/01/16 00:28:50;;;;;;;24.47;14.83;;;;;;;3.28;89.63;94796.88;5054879;28;20437;-89
2023/01/16 00:31:17;;;;;;;27.63;15.60;;;;;;;3.30;89.50;94800.19;5054669;28;20461;-90
2023/01/16 00:33:44;;;;;;;26.10;14.73;;;;;;;3.32;89.38;94800.94;5054361;28;20458;-92
2023/01/16 00:36:12;;;;;;;24.23;14.50;;;;;;;3.32;89.40;94790.56;5054392;28;20456;-92
2023/01/16 00:38:41;;;;;;;20.40;12.73;;;;;;;3.27;89.49;94782.22;5054112;28;20487;-91
2023/01/16 00:41:08;;;;;;;24.50;14.30;;;;;;;3.32;88.95;94775.03;5054637;28;20500;-89
2023/01/16 00:43:35;;;;;;;22.07;14.87;;;;;;;3.36;88.93;94779.09;5054423;28;20450;-91
2023/01/16 00:46:02;;;;;;;22.03;13.87;;;;;;;3.33;88.47;94761.13;5054647;28;20528;-92
2023/01/16 00:48:29;;;;;;;26.80;13.97;;;;;;;3.34;89.07;94762.78;5054353;28;20520;-91
2023/01/16 00:50:56;;;;;;;36.47;18.67;;;;;;;3.31;88.83;94760.38;5054248;28;20488;-93
2023/01/16 00:53:23;;;;;;;27.07;17.50;;;;;;;3.27;88.87;94753.72;5054043;28;20453;-89
2023/01/16 00:55:53;;;;;;;32.17;18.47;;;;;;;3.28;88.65;94755.38;5054151;28;20450;-91
2023/01/16 00:58:20;;;;;;;30.57;18.50;;;;;;;3.26;88.12;94762.41;5054079;28;20480;-91
2023/01/16 01:00:47;;;;;;;29.20;18.63;;;;;;;3.25;87.75;94750.38;5054352;28;20995;-91
2023/01/16 01:03:14;;;;;;;38.43;19.17;;;;;;;3.21;87.26;94749.72;5054713;28;20445;-92
2023/01/16 01:05:42;;;;;;;33.73;17.60;;;;;;;3.20;88.34;94758.44;5053988;28;20845;-90
2023/01/16 01:08:08;;;;;;;35.60;20.47;;;;;;;3.15;88.84;94749.22;5054285;28;20842;-91
2023/01/16 01:10:37;;;;;;;36.83;20.03;;;;;;;3.21;89.31;94754.91;5054576;28;20453;-91
2023/01/16 01:13:06;;;;;;;38.63;21.87;;;;;;;3.20;88.78;94752.41;5053932;28;20481;-92
2023/01/16 01:15:33;;;;;;;43.70;21.90;;;;;;;3.20;88.85;94760.19;5053856;28;20846;-92
2023/01/16 01:18:00;;;;;;;34.90;19.73;;;;;;;3.14;88.27;94766.53;5053936;28;20473;-91
2023/01/16 01:20:27;;;;;;;30.90;18.77;;;;;;;3.14;88.45;94760.50;5054064;28;20449;-92
2023/01/16 01:22:54;;;;;;;30.97;16.20;;;;;;;3.17;88.42;94753.41;5054009;28;20490;-90
2023/01/16 01:25:21;;;;;;;20.90;14.70;;;;;;;3.17;88.54;94761.16;5053936;28;20449;-91
2023/01/16 01:27:48;;;;;;;25.13;15.30;;;;;;;3.15;88.33;94763.03;5054835;28;20544;-90
2023/01/16 01:30:17;;;;;;;26.00;16.63;;;;;;;3.11;87.94;94764.97;5058225;28;20461;-92
2023/01/16 01:32:44;;;;;;;24.23;14.83;;;;;;;3.09;88.95;94756.44;5058152;28;20932;-91
2023/01/16 01:35:11;;;;;;;17.77;12.90;;;;;;;3.06;88.93;94750.59;5057826;28;20449;-92
2023/01/16 01:37:38;;;;;;;20.23;12.50;;;;;;;3.01;88.62;94748.28;5057935;28;20480;-89
2023/01/16 01:40:07;;;;;;;18.50;12.13;;;;;;;2.92;88.33;94751.41;5057922;28;20457;-91
2023/01/16 01:42:45;;;;;;;18.70;12.70;;;;;;;2.81;87.80;94751.16;5057930;28;20461;-92
2023/01/16 01:45:25;;;;;;;21.20;12.90;;;;;;;2.73;89.45;94741.25;5057990;28;20467;-93
2023/01/16 01:48:01;;;;;;;18.70;12.30;;;;;;;2.71;89.92;94731.91;5057835;28;20453;-92
2023/01/16 01:50:37;;;;;;;17.90;11.40;;;;;;;2.71;90.96;94706.00;5057998;28;20464;-90
2023/01/16 01:53:09;;;;;;;17.90;10.33;;;;;;;2.73;92.24;94711.91;5058033;28;20460;-92
2023/01/16 01:55:38;;;;;;;17.00;11.60;;;;;;;2.80;92.11;94716.66;5058074;28;20465;-91
2023/01/16 01:58:05;;;;;;;17.50;10.40;;;;;;;2.84;92.50;94713.88;5057709;28;20492;-91
2023/01/16 02:00:34;;;;;;;16.07;10.77;;;;;;;2.87;92.43;94704.16;5057700;28;20850;-90
2023/01/16 02:03:08;;;;;;;18.93;11.43;;;;;;;2.88;91.83;94713.63;5057587;28;20457;-92
2023/01/16 02:05:38;;;;;;;14.93;10.80;;;;;;;2.86;91.77;94710.28;5057376;28;20453;-91
2023/01/16 02:08:07;;;;;;;17.60;12.30;;;;;;;2.87;92.38;94701.56;5057365;28;20445;-92
2023/01/16 02:10:39;;;;;;;17.17;10.20;;;;;;;2.91;92.68;94697.91;5057392;28;20441;-93
2023/01/16 02:13:06;;;;;;;19.00;11.30;;;;;;;2.97;92.58;94697.56;5057476;28;20562;-92
2023/01/16 02:15:36;;;;;;;16.47;11.60;;;;;;;3.05;92.25;94695.34;5057162;28;21002;-91
2023/01/16 02:21:00;;;;;;;22.20;12.63;;;;;;;3.11;91.01;94694.13;5056880;28;20428;-93
2023/01/16 02:24:00;;;;;;;21.67;11.27;;;;;;;3.11;90.86;94697.56;5057212;28;20455;-91
2023/01/16 02:27:05;;;;;;;16.87;10.83;;;;;;;3.08;91.05;94695.16;5057157;28;20489;-92
2023/01/16 02:29:53;;;;;;;16.70;11.60;;;;;;;3.08;90.47;94687.38;5056945;28;20453;-88
2023/01/16 02:32:36;;;;;;;17.17;11.10;;;;;;;3.08;90.64;94687.38;5056951;28;20464;-92
2023/01/16 02:35:33;;;;;;;15.07;10.50;;;;;;;3.08;91.26;94681.34;5057103;28;20445;-91
2023/01/16 02:38:06;;;;;;;15.37;10.87;;;;;;;3.02;90.80;94685.16;5056514;28;20487;-92
2023/01/16 02:40:43;;;;;;;15.30;9.93;;;;;;;3.05;90.97;94684.97;5055630;28;20464;-91
2023/01/16 02:43:21;;;;;;;16.37;11.20;;;;;;;3.05;91.33;94672.00;5056598;28;20440;-91
2023/01/16 02:45:55;;;;;;;16.60;12.33;;;;;;;3.10;91.47;94682.94;5056962;28;20617;-92
2023/01/16 02:48:28;;;;;;;19.10;12.33;;;;;;;3.12;91.17;94669.88;5056526;28;20456;-91
2023/01/16 02:51:02;;;;;;;14.63;11.33;;;;;;;3.16;90.50;94678.31;5056918;28;20792;-92
2023/01/16 02:53:35;;;;;;;16.50;11.43;;;;;;;3.11;90.64;94671.63;5056720;28;20445;-91
2023/01/16 02:56:08;;;;;;;13.50;10.30;;;;;;;3.14;90.17;94683.59;5057214;28;20453;-90
2023/01/16 02:58:43;;;;;;;16.13;11.10;;;;;;;3.21;89.76;94676.28;5063229;28;20488;-90
2023/01/16 03:01:11;;;;;;;18.90;12.10;;;;;;;3.22;89.71;94673.63;5073578;28;20445;-88
2023/01/16 03:03:43;;;;;;;18.90;11.03;;;;;;;3.14;90.07;94667.19;5071213;28;20532;-92
2023/01/16 03:06:32;;;;;;;20.50;11.53;;;;;;;3.04;90.59;94659.97;5056461;28;20997;-92
2023/01/16 03:09:11;;;;;;;13.87;10.20;;;;;;;2.96;90.14;94664.78;5056616;28;20861;-90
2023/01/16 03:11:48;;;;;;;17.07;11.40;;;;;;;2.88;90.21;94645.41;5056301;28;20452;-92
2023/01/16 03:14:35;;;;;;;17.07;11.23;;;;;;;2.89;90.92;94652.25;5055500;28;20849;-92
2023/01/16 03:17:14;;;;;;;14.23;9.40;;;;;;;2.91;91.06;94651.28;4994656;28;20462;-91
2023/01/16 03:19:56;;;;;;;17.00;11.23;;;;;;;2.97;91.31;94637.94;4994512;28;20444;-92
2023/01/16 03:22:30;;;;;;;16.27;11.73;;;;;;;3.04;90.28;94641.84;4994828;28;20448;-92
2023/01/16 03:25:12;;;;;;;15.90;10.57;;;;;;;3.05;90.34;94634.88;4994428;28;20869;-92
2023/01/16 03:27:48;;;;;;;14.23;10.67;;;;;;;3.07;89.93;94639.06;4961624;28;20848;-92
2023/01/16 03:30:25;;;;;;;19.85;13.23;;;;;;;3.18;90.11;94632.38;4993258;28;20890;-92
2023/01/16 03:32:57;;;;;;;17.70;12.30;;;;;;;3.23;90.33;94635.56;4994463;28;20212;-91
2023/01/16 03:35:30;;;;;;;15.50;10.83;;;;;;;3.22;89.99;94628.69;4994472;28;20954;-92
2023/01/16 03:38:00;;;;;;;13.57;10.03;;;;;;;3.23;90.41;94627.78;4994267;28;20879;-91
2023/01/16 03:40:30;;;;;;;17.63;11.63;;;;;;;3.22;89.72;94626.09;4994613;28;20436;-92
2023/01/16 03:43:03;;;;;;;18.70;11.13;;;;;;;3.18;89.39;94620.28;4994665;28;20455;-91
2023/01/16 03:45:35;;;;;;;15.67;10.70;;;;;;;3.15;89.62;94609.25;4994081;28;20455;-92
2023/01/16 03:48:10;;;;;;;20.03;10.73;;;;;;;3.06;89.39;94595.09;4994434;28;20467;-93
2023/01/16 03:50:43;;;;;;;18.53;11.03;;;;;;;3.06;89.54;94598.50;4993602;28;20474;-91
2023/01/16 03:53:15;;;;;;;14.43;10.43;;;;;;;3.00;89.48;94595.47;4997496;28;20451;-91
2023/01/16 03:55:46;;;;;;;19.07;10.73;;;;;;;2.95;88.93;94592.31;5055275;28;20476;-90
2023/01/16 03:58:19;;;;;;;16.30;11.47;;;;;;;2.90;89.64;94595.19;5055644;28;20477;-92
2023/01/16 04:00:52;;;;;;;16.30;10.93;;;;;;;2.84;89.77;94582.56;5059986;28;20502;-93
2023/01/16 04:03:27;;;;;;;15.87;10.17;;;;;;;2.85;89.88;94583.41;5058115;28;20491;-93
2023/01/16 04:06:03;;;;;;;19.60;12.43;;;;;;;2.84;90.26;94569.63;5055447;28;20448;-91
2023/01/16 04:08:34;;;;;;;17.70;10.67;;;;;;;2.89;89.34;94577.97;5056023;28;20445;-92
2023/01/16 04:11:01;;;;;;;15.03;10.87;;;;;;;2.92;89.41;94579.53;5056154;28;20450;-89
2023/01/16 04:13:34;;;;;;;16.83;11.47;;;;;;;2.92;88.75;94582.97;5056758;28;20494;-92
2023/01/16 04:16:04;;;;;;;19.70;13.33;;;;;;;2.94;88.11;94588.88;5055784;28;20441;-92
2023/01/16 04:18:33;;;;;;;17.37;13.73;;;;;;;2.88;88.84;94580.63;5055666;28;20535;-88
2023/01/16 04:21:04;;;;;;;19.50;13.50;;;;;;;2.89;88.37;94584.88;5055123;28;20487;-92
2023/01/16 04:23:31;;;;;;;21.20;13.30;;;;;;;2.88;89.17;94583.22;5055590;28;20524;-92
2023/01/16 04:25:58;;;;;;;24.07;14.20;;;;;;;2.85;89.01;94586.00;5055468;28;20461;-92
2023/01/16 04:28:25;;;;;;;20.33;14.53;;;;;;;2.84;89.11;94582.56;5055238;28;20794;-92
2023/01/16 04:30:52;;;;;;;28.90;19.87;;;;;;;2.72;89.25;94585.91;5055330;28;20445;-91
2023/01/16 04:33:19;;;;;;;25.77;17.70;;;;;;;2.60;89.55;94586.59;5055815;28;20460;-94
2023/01/16 04:35:46;;;;;;;27.63;18.83;;;;;;;2.48;89.39;94576.06;5056744;28;20934;-93
2023/01/16 04:38:15;;;;;;;23.10;15.23;;;;;;;2.41;90.22;94577.34;5056624;28;20476;-94
2023/01/16 04:40:42;;;;;;;23.23;13.37;;;;;;;2.37;90.14;94581.03;5054586;28;20449;-92
2023/01/16 04:43:09;;;;;;;23.10;18.20;;;;;;;2.09;90.87;94580.94;5054550;28;20449;-91
2023/01/16 04:45:36;;;;;;;17.48;14.13;;;;;;;1.90;91.14;94569.97;5065012;28;20449;-95
2023/01/16 04:48:03;;;;;;;28.10;15.25;;;;;;;1.99;91.86;94579.78;5054042;28;20209;-91
2023/01/16 04:50:29;;;;;;;25.33;13.70;;;;;;;2.04;91.93;94578.63;5054416;28;20203;-92
2023/01/16 04:52:56;;;;;;;22.73;14.20;;;;;;;2.12;91.73;94573.00;5054284;28;20457;-92
2023/01/16 04:55:25;;;;;;;17.67;13.27;;;;;;;2.22;91.71;94568.13;5054205;28;20464;-92
2023/01/16 04:57:52;;;;;;;19.77;13.70;;;;;;;2.28;90.60;94565.19;5054343;28;20445;-92
2023/01/16 05:00:19;;;;;;;26.37;14.20;;;;;;;2.35;90.89;94572.53;5054214;28;20453;-91
2023/01/16 05:02:46;;;;;;;19.33;13.27;;;;;;;2.39;89.99;94574.00;5053434;28;20457;-93
2023/01/16 05:05:13;;;;;;;26.63;16.80;;;;;;;2.44;90.07;94571.97;5054110;28;20452;-94
2023/01/16 05:07:40;;;;;;;31.67;20.37;;;;;;;2.45;89.41;94558.13;5054236;28;21034;-92
2023/01/16 05:10:08;;;;;;;38.53;22.23;;;;;;;2.43;89.13;94559.97;5053075;28;20453;-84
2023/01/16 05:12:36;;;;;;;34.57;20.33;;;;;;;2.43;88.91;94559.97;5052596;28;20477;-84
2023/01/16 05:15:03;;;;;;;46.93;22.50;;;;;;;2.48;88.59;94554.50;5052658;28;20449;-84
2023/01/16 05:17:30;;;;;;;37.63;23.90;;;;;;;2.51;88.56;94563.84;5052541;28;20455;-87
2023/01/16 05:19:56;;;;;;;48.03;27.97;;;;;;;2.47;88.10;94560.59;5052960;28;20481;-86
2023/01/16 05:22:23;;;;;;;54.33;31.17;;;;;;;2.48;88.06;94549.31;5053257;28;20550;-86
2023/01/16 05:24:54;;;;;;;58.03;31.20;;;;;;;2.53;89.19;94543.88;5052619;28;20882;-86
2023/01/16 05:27:21;;;;;;;60.17;33.57;;;;;;;2.46;89.13;94536.47;5052371;28;20997;-88
2023/01/16 05:29:49;;;;;;;51.03;27.10;;;;;;;2.46;89.04;94539.06;5053172;28;20460;-88
2023/01/16 05:32:16;;;;;;;49.73;29.77;;;;;;;2.35;89.29;94536.28;5052485;28;20441;-85
2023/01/16 05:34:43;;;;;;;49.87;29.53;;;;;;;2.38;89.61;94533.50;5052650;28;20510;-88
2023/01/16 05:37:10;;;;;;;53.17;32.92;;;;;;;2.38;89.42;94530.91;5053170;28;20461;-88
2023/01/16 05:39:37;;;;;;;43.40;30.33;;;;;;;2.34;88.97;94529.44;5053291;28;20295;-90
2023/01/16 05:42:04;;;;;;;43.73;27.13;;;;;;;2.33;89.51;94527.78;5053405;28;20661;-90
2023/01/16 05:44:31;;;;;;;52.73;31.30;;;;;;;2.30;89.78;94529.69;5053282;28;20458;-86
2023/01/16 05:46:59;;;;;;;57.20;32.00;;;;;;;2.25;90.09;94519.59;5052890;28;20437;-90
2023/01/16 05:49:26;;;;;;;49.80;30.48;;;;;;;2.23;90.95;94524.03;5053247;28;20445;-90
2023/01/16 05:51:53;;;;;;;40.23;25.83;;;;;;;2.29;90.85;94525.44;5052985;28;20602;-87
2023/01/16 05:54:19;;;;;;;40.40;25.70;;;;;;;2.27;90.61;94522.09;5052881;28;20445;-88
2023/01/16 05:56:47;;;;;;;38.53;24.80;;;;;;;2.28;90.06;94518.59;5052742;28;20798;-87
2023/01/16 05:59:14;;;;;;;39.77;26.10;;;;;;;2.33;89.99;94526.94;5050744;28;20473;-89
2023/01/16 06:01:41;;;;;;;33.43;22.33;;;;;;;2.38;89.76;94528.31;5052430;28;20457;-88
2023/01/16 06:04:09;;;;;;;37.90;22.30;;;;;;;2.41;89.75;94519.53;5052493;28;20458;-87
2023/01/16 06:06:36;;;;;;;37.97;25.00;;;;;;;2.44;89.46;94525.38;5052539;28;20502;-87
2023/01/16 06:09:03;;;;;;;37.58;26.05;;;;;;;2.47;89.09;94522.59;5051483;28;20802;-86
2023/01/16 06:11:30;;;;;;;44.43;28.50;;;;;;;2.29;89.70;94521.09;5042152;28;20212;-87
2023/01/16 06:13:57;;;;;;;49.13;29.87;;;;;;;2.29;90.28;94520.25;5050710;28;20460;-86
2023/01/16 06:16:23;;;;;;;49.67;28.90;;;;;;;2.22;90.77;94514.59;5056265;28;20503;-80
2023/01/16 06:18:50;;;;;;;87.03;41.07;;;;;;;2.25;91.53;94509.25;5055690;28;20503;-87
2023/01/16 06:21:19;;;;;;;34.80;23.50;;;;;;;2.07;91.22;94505.16;5056186;28;20936;-88
2023/01/16 06:23:45;;;;;;;29.80;18.67;;;;;;;2.19;91.34;94517.38;5056377;28;20453;-88
2023/01/16 06:26:12;;;;;;;34.40;19.10;;;;;;;2.22;90.87;94509.44;5055756;28;20445;-86
2023/01/16 06:28:39;;;;;;;49.83;25.80;;;;;;;2.26;90.75;94513.50;5055315;28;20460;-86
2023/01/16 06:31:07;;;;;;;73.53;31.55;;;;;;;2.32;90.25;94515.75;5055639;28;20476;-87
2023/01/16 06:33:34;;;;;;;68.53;32.37;;;;;;;2.40;90.01;94517.88;5052753;28;20706;-86
2023/01/16 06:36:01;;;;;;;39.40;21.93;;;;;;;2.50;90.83;94516.41;5055532;28;20453;-86
2023/01/16 06:38:29;;;;;;;40.43;23.80;;;;;;;2.45;90.79;94521.84;5053783;28;20489;-88
2023/01/16 06:40:56;;;;;;;37.00;23.27;;;;;;;2.47;90.71;94514.84;5055727;28;20456;-87
2023/01/16 06:43:24;;;;;;;61.27;28.97;;;;;;;2.56;90.97;94528.16;5054869;28;20519;-88
2023/01/16 06:45:51;;;;;;;65.30;35.30;;;;;;;2.56;90.98;94548.88;5055448;28;20471;-87
2023/01/16 06:48:18;;;;;;;58.97;32.40;;;;;;;2.62;91.40;94541.59;5056996;28;20472;-84
2023/01/16 06:50:45;;;;;;;60.70;32.77;;;;;;;2.74;91.27;94542.59;5055782;28;20453;-85
2023/01/16 06:53:12;;;;;;;49.20;28.27;;;;;;;2.80;91.26;94537.03;5055518;28;20866;-85
2023/01/16 06:55:41;;;;;;;48.13;30.80;;;;;;;2.69;91.97;94531.69;5055170;28;20445;-85
2023/01/16 06:58:09;;;;;;;46.33;28.47;;;;;;;2.71;92.42;94509.13;5055023;28;20522;-84
2023/01/16 07:00:36;;;;;;;39.40;25.30;;;;;;;2.52;94.35;94500.78;5055077;28;20545;-85
2023/01/16 07:03:03;;;;;;;32.90;22.60;;;;;;;2.52;94.67;94499.00;5036218;28;20924;-85
2023/01/16 07:05:31;;;;;;;34.23;22.47;;;;;;;2.75;94.43;94519.19;5055734;28;20445;-85
2023/01/16 07:07:59;;;;;;;34.70;20.03;;;;;;;3.03;94.46;94522.69;5036323;28;20441;-85
2023/01/16 07:10:26;;;;;;;33.80;20.30;;;;;;;3.30;93.09;94522.75;5055127;28;20449;-85
2023/01/16 07:12:54;;;;;;;42.63;19.60;;;;;;;3.59;92.43;94526.13;5055260;28;20488;-85
2023/01/16 07:23:42;;;;;;;61.40;30.23;;;;;;;3.85;93.38;94499.31;5054146;28;20521;-86
2023/01/16 07:26:10;;;;;;;57.20;33.07;;;;;;;3.94;94.78;94506.50;5053977;28;20820;-86
2023/01/16 07:28:39;;;;;;;67.10;34.00;;;;;;;3.88;94.60;94513.88;5055053;28;20445;-85
2023/01/16 07:31:07;;;;;;;59.03;30.80;;;;;;;3.73;96.04;94497.50;5055990;28;20457;-86
2023/01/16 07:33:35;;;;;;;74.30;33.27;;;;;;;3.58;97.11;94493.31;5059455;28;21046;-85
2023/01/16 07:36:04;;;;;;;57.80;30.50;;;;;;;3.48;97.86;94500.88;5061342;28;20936;-86
2023/01/16 07:38:30;;;;;;;61.20;27.60;;;;;;;3.44;99.26;94507.16;5060845;28;20452;-86
2023/01/16 07:40:57;;;;;;;53.50;27.30;;;;;;;3.43;99.59;94501.13;5054803;28;20449;-86
2023/01/16 07:43:24;;;;;;;51.67;27.87;;;;;;;3.55;100.00;94499.53;5054663;28;20479;-85
2023/01/16 07:45:53;;;;;;;46.13;25.00;;;;;;;3.57;100.00;94478.69;5054791;28;20444;-86
2023/01/16 07:48:20;;;;;;;58.07;28.77;;;;;;;3.61;99.46;94468.00;5055076;28;20512;-86
2023/01/16 07:50:51;;;;;;;53.37;29.40;;;;;;;3.55;100.00;94478.78;5054626;28;20441;-86
2023/01/16 07:53:21;;;;;;;64.37;30.63;;;;;;;3.61;99.53;94482.75;5054420;28;20469;-86
2023/01/16 07:55:49;;;;;;;65.40;33.47;;;;;;;3.53;99.30;94493.63;5054236;28;20928;-86
2023/01/16 07:58:16;;;;;;;64.60;34.07;;;;;;;3.42;99.93;94489.09;5054561;28;20541;-86
2023/01/16 08:00:43;;;;;;;67.70;34.60;;;;;;;3.40;100.00;94464.19;5054348;28;20477;-86
2023/01/16 08:03:12;;;;;;;63.67;36.67;;;;;;;3.42;100.00;94463.16;5054540;28;20445;-87
2023/01/16 08:05:39;;;;;;;64.60;34.90;;;;;;;3.20;100.00;94462.03;5054278;28;20441;-87
2023/01/16 08:08:05;;;;;;;71.93;35.10;;;;;;;3.37;100.00;94460.03;5055303;28;20860;-87
2023/01/16 08:10:32;;;;;;;73.87;34.00;;;;;;;3.49;100.00;94458.44;5052429;28;20964;-86
2023/01/16 08:12:59;;;;;;;61.97;29.43;;;;;;;3.41;100.00;94445.94;5039816;28;20540;-87
2023/01/16 08:15:26;;;;;;;60.33;31.87;;;;;;;3.50;100.00;94446.31;5043290;28;20503;-87
2023/01/16 08:17:53;;;;;;;63.50;32.30;;;;;;;3.71;100.00;94447.47;5046246;28;20933;-86
2023/01/16 08:20:22;;;;;;;57.77;32.30;;;;;;;3.88;100.00;94433.41;5051038;28;20495;-88
2023/01/16 08:22:51;;;;;;;71.80;34.57;;;;;;;3.90;100.00;94445.34;5054524;28;20476;-86
2023/01/16 08:25:19;;;;;;;62.33;35.57;;;;;;;3.92;100.00;94445.25;5055131;28;20465;-84
2023/01/16 08:27:46;;;;;;;59.00;34.00;;;;;;;4.00;99.90;94458.53;5054724;28;20962;-86
2023/01/16 08:30:14;;;;;;;59.17;34.70;;;;;;;3.93;98.52;94470.28;5054802;28;20456;-86
2023/01/16 08:32:42;;;;;;;67.03;34.37;;;;;;;3.85;99.11;94468.19;5052993;28;20456;-86
2023/01/16 08:35:10;;;;;;;67.23;36.67;;;;;;;3.97;99.73;94450.97;5042051;28;20449;-87
2023/01/16 08:37:38;;;;;;;69.57;40.20;;;;;;;4.03;99.77;94464.38;5035112;28;20454;-89
2023/01/16 08:40:09;;;;;;;77.30;40.33;;;;;;;4.12;100.00;94452.56;5040111;28;20496;-89
2023/01/16 08:53:35;;;;;;;80.80;42.57;;;;;;;4.71;98.13;94419.09;5054030;28;20483;-92
2023/01/16 08:56:01;;;;;;;72.73;40.43;;;;;;;4.82;97.03;94428.72;5054027;28;21041;-90
2023/01/16 08:58:28;;;;;;;62.83;41.03;;;;;;;4.90;96.59;94421.22;5054144;28;20456;-91
2023/01/16 09:00:55;;;;;;;61.43;38.47;;;;;;;5.02;95.97;94411.72;5053832;28;20887;-91
2023/01/16 09:03:22;;;;;;;80.30;41.30;;;;;;;5.19;96.30;94417.38;5053765;28;20457;-91
2023/01/16 09:05:49;;;;;;;66.63;40.10;;;;;;;5.27;95.41;94414.25;5054405;28;20449;-89
2023/01/16 09:08:16;;;;;;;72.97;40.10;;;;;;;5.24;94.32;94412.69;5054786;28;20473;-90
2023/01/16 09:13:48;;;;;;;73.13;38.37;;;;;;;5.24;93.51;94409.28;5054754;28;20456;-90
2023/01/16 09:16:23;;;;;;;77.47;42.93;;;;;;;4.98;95.17;94393.75;4993377;28;20958;-91
2023/01/16 09:18:51;;;;;;;64.03;38.03;;;;;;;4.95;95.38;94395.75;4993629;28;20455;-90
2023/01/16 09:21:19;;;;;;;70.20;39.37;;;;;;;4.91;96.25;94395.09;5010006;28;20487;-90
2023/01/16 09:23:46;;;;;;;97.90;42.70;;;;;;;4.86;96.60;94384.19;4993658;28;20928;-91
2023/01/16 09:26:15;;;;;;;75.40;39.50;;;;;;;4.97;97.78;94384.28;4993123;28;21037;-89
2023/01/16 09:28:42;;;;;;;62.30;36.50;;;;;;;4.98;97.02;94380.75;4993745;28;20478;-91
2023/01/16 09:31:09;;;;;;;56.77;32.20;;;;;;;5.08;97.85;94373.13;4993467;28;20456;-92
2023/01/16 09:33:36;;;;;;;56.37;35.53;;;;;;;5.06;97.56;94367.19;4993766;28;20448;-91
2023/01/16 09:36:04;;;;;;;59.83;35.93;;;;;;;4.95;97.72;94370.56;4993682;28;21276;-91
2023/01/16 09:38:31;;;;;;;52.53;28.87;;;;;;;5.01;98.40;94356.31;4993315;28;20452;-88
2023/01/16 09:41:00;;;;;;;44.57;26.57;;;;;;;5.10;98.85;94349.59;4992956;28;20480;-90
2023/01/16 09:43:35;;;;;;;46.83;24.80;;;;;;;5.30;98.81;94362.00;4992695;28;20491;-90
2023/01/16 09:46:06;;;;;;;44.30;26.43;;;;;;;5.32;97.45;94362.72;4992911;28;20456;-90
2023/01/16 09:48:37;;;;;;;57.07;29.67;;;;;;;5.39;97.05;94356.13;4992800;28;20464;-89
2023/01/16 09:51:08;;;;;;;45.30;27.23;;;;;;;5.45;96.79;94345.25;4996121;28;20490;-90
2023/01/16 09:59:24;;;;;;;43.57;26.47;;;;;;;5.55;95.82;94333.25;5057031;28;20436;-89
2023/01/16 10:01:56;;;;;;;43.80;25.53;;;;;;;5.68;95.62;94327.94;5057386;28;20523;-90
2023/01/16 10:04:25;;;;;;;56.10;32.17;;;;;;;5.65;95.42;94317.75;5057475;28;20453;-90
2023/01/16 10:07:04;;;;;;;45.50;27.07;;;;;;;5.64;94.39;94329.13;5057747;28;20453;-90
2023/01/16 10:09:39;;;;;;;49.97;27.20;;;;;;;5.71;94.19;94319.91;5057717;28;20449;-90
2023/01/16 10:12:10;;;;;;;45.90;24.50;;;;;;;5.71;94.48;94322.50;5057485;28;20448;-89
2023/01/16 10:14:51;;;;;;;51.03;29.70;;;;;;;5.54;94.87;94309.94;5057382;28;20456;-90
2023/01/16 10:17:25;;;;;;;49.13;27.80;;;;;;;5.51;95.23;94299.75;5057040;28;20881;-89
2023/01/16 10:20:13;;;;;;;52.20;28.40;;;;;;;5.47;94.49;94309.53;5057073;28;20853;-89
2023/01/16 10:22:50;;;;;;;48.93;29.00;;;;;;;5.48;94.69;94295.59;5057334;28;20452;-89
2023/01/16 10:25:25;;;;;;;47.43;26.93;;;;;;;5.53;95.56;94288.28;5056967;28;20455;-90
2023/01/16 10:28:05;;;;;;;47.33;28.17;;;;;;;5.53;94.82;94283.09;5057004;28;20467;-89
2023/01/16 10:30:40;;;;;;;62.13;29.73;;;;;;;5.53;94.71;94269.25;5056644;28;20445;-90
2023/01/16 10:33:13;;;;;;;47.30;27.57;;;;;;;5.66;94.86;94275.19;5056744;28;20429;-89
2023/01/16 10:35:44;;;;;;;55.90;28.57;;;;;;;5.69;93.81;94271.50;5056953;28;20962;-89
2023/01/16 10:38:25;;;;;;;40.50;24.17;;;;;;;5.70;94.00;94262.75;5056838;28;20507;-90
2023/01/16 10:40:54;;;;;;;53.27;25.10;;;;;;;5.80;93.28;94263.75;5056250;28;20479;-90
2023/01/16 10:49:29;;;;;;;40.60;26.90;;;;;;;6.06;92.53;94244.34;5056316;28;20796;-89
2023/01/16 10:51:58;;;;;;;55.27;30.33;;;;;;;6.04;92.85;94238.44;5056349;28;20449;-90
2023/01/16 10:54:25;;;;;;;57.30;30.10;;;;;;;6.13;91.95;94224.72;5056834;28;20460;-90
2023/01/16 10:56:52;;;;;;;53.63;30.37;;;;;;;6.17;92.08;94231.31;5056214;28;20966;-90
2023/01/16 10:59:20;;;;;;;43.43;27.00;;;;;;;6.15;91.76;94222.81;5056662;28;20536;-90
2023/01/16 11:01:51;;;;;;;50.93;28.90;;;;;;;6.25;91.61;94222.06;5054637;28;20484;-90
2023/01/16 11:04:20;;;;;;;54.00;29.53;;;;;;;6.33;91.65;94196.25;5056186;28;20442;-90
2023/01/16 11:06:47;;;;;;;44.83;26.47;;;;;;;6.34;90.53;94190.06;5056093;28;20442;-90
2023/01/16 11:09:20;;;;;;;44.37;26.83;;;;;;;6.42;90.21;94193.75;5055859;28;20446;-91
2023/01/16 11:20:19;;;;;;;50.43;27.90;;;;;;;5.95;92.91;94183.63;4975528;28;20527;-89
2023/01/16 11:22:57;;;;;;;52.50;29.63;;;;;;;5.94;93.05;94188.00;4975571;28;20453;-90
2023/01/16 11:25:24;;;;;;;60.93;33.20;;;;;;;5.98;93.04;94173.81;4975315;28;20480;-91
2023/01/16 11:27:53;;;;;;;67.30;33.40;;;;;;;6.01;92.91;94157.09;4975416;28;20457;-89
2023/01/16 11:30:27;;;;;;;49.30;30.40;;;;;;;6.06;93.19;94166.22;4975239;28;20449;-91
2023/01/16 11:32:58;;;;;;;56.83;33.30;;;;;;;6.11;93.03;94165.88;4975302;28;20455;-91
2023/01/16 11:35:33;;;;;;;52.53;31.90;;;;;;;6.16;93.24;94169.75;4975377;28;20457;-90
2023/01/16 11:38:02;;;;;;;52.63;30.97;;;;;;;6.19;92.94;94164.31;4975427;28;20472;-89
2023/01/16 11:40:34;;;;;;;54.47;31.50;;;;;;;6.26;92.78;94150.78;4975205;28;20476;-91
2023/01/16 11:46:11;;;;;;;49.07;31.40;;;;;;;6.46;91.74;94157.84;4975232;28;20464;-88
2023/01/16 11:48:41;;;;;;;56.33;30.33;;;;;;;6.50;91.70;94154.03;4975340;28;20539;-89
2023/01/16 11:51:14;;;;;;;66.37;33.20;;;;;;;6.49;91.05;94132.38;4975306;28;20970;-90
2023/01/16 11:53:44;;;;;;;59.80;33.70;;;;;;;6.58;90.76;94130.78;5003717;28;20549;-91
2023/01/16 11:56:36;;;;;;;46.20;30.67;;;;;;;6.72;90.64;94148.75;5055643;28;20473;-91
2023/01/16 11:59:26;;;;;;;55.17;34.33;;;;;;;6.86;90.08;94133.72;5055188;28;20449;-91
2023/01/16 12:02:20;;;;;;;60.80;32.30;;;;;;;6.71;89.34;94120.19;5033127;28;20479;-90
2023/01/16 12:08:01;;;;;;;64.77;34.73;;;;;;;6.70;90.66;94105.50;5033048;28;20430;-91
2023/01/16 12:10:39;;;;;;;54.77;32.33;;;;;;;6.69;89.54;94107.28;5033659;28;20450;-92
2023/01/16 12:16:19;;;;;;;43.17;27.17;;;;;;;6.95;89.02;94119.97;5046265;28;20442;-89
2023/01/16 12:19:00;;;;;;;48.10;25.40;;;;;;;7.07;87.74;94096.28;5007353;28;20452;-91
2023/01/16 12:21:36;;;;;;;54.73;25.03;;;;;;;7.14;87.49;94093.97;4993419;28;20880;-92
2023/01/16 12:24:21;;;;;;;54.87;29.80;;;;;;;7.20;85.78;94085.63;4993312;28;20979;-91
2023/01/16 12:27:00;;;;;;;49.87;29.63;;;;;;;7.18;87.23;94089.31;4993682;28;20908;-91
2023/01/16 12:29:41;;;;;;;54.30;31.90;;;;;;;7.25;87.42;94072.22;4994350;28;20460;-91
2023/01/16 12:32:34;;;;;;;49.63;29.03;;;;;;;7.27;86.93;94070.28;4993958;28;20464;-91
2023/01/16 12:35:33;;;;;;;70.20;35.77;;;;;;;7.24;86.42;94058.34;4993447;28;20489;-91